Time;durP1;ratioP1;P1;durP2;ratioP2;P2;SDS_P1;SDS_P2;PMS_P1;PMS_P2;Temp;Humidity;BMP_temperature;BMP_pressure;BME280_temperature;BME280_humidity;BME280_pressure;Samples;Min_cycle;Max_cycle;Signal;HPM_P1;HPM_P2
2021/05/06 00:02:41;;;;;;;2.00;1.50;;;;;;;5.14;70.80;95903.52;1705900;84;21155;-81
2021/05/06 00:05:39;;;;;;;2.00;1.27;;;;;;;5.13;70.75;95906.66;1691663;84;21099;-80
2021/05/06 00:08:22;;;;;;;2.90;1.25;;;;;;;5.11;70.55;95906.14;1677587;84;21140;-81
2021/05/06 00:11:24;;;;;;;1.90;1.40;;;;;;;5.10;70.28;95899.84;1681107;84;21554;-81
2021/05/06 00:30:28;;;;;;;2.62;1.40;;;;;;;4.96;69.66;95910.05;1699692;84;21526;-81
2021/05/06 00:32:54;;;;;;;1.02;0.62;;;;;;;4.92;69.66;95906.34;1699015;83;21151;-81
2021/05/06 00:35:19;;;;;;;4.13;1.70;;;;;;;4.88;69.49;95910.55;1680092;84;21531;-81
2021/05/06 00:37:55;;;;;;;3.02;1.52;;;;;;;4.87;69.52;95911.59;1680233;84;21514;-81
2021/05/06 00:40:18;;;;;;;2.47;1.43;;;;;;;4.88;69.54;95913.17;1678748;84;21149;-81
2021/05/06 00:43:15;;;;;;;3.52;1.52;;;;;;;4.85;69.50;95916.32;1697248;83;21146;-81
2021/05/06 00:54:24;;;;;;;2.40;1.65;;;;;;;4.79;69.01;95927.87;1704052;84;21194;-81
2021/05/06 00:56:56;;;;;;;3.30;1.40;;;;;;;4.75;69.06;95930.98;1691017;84;21163;-81
2021/05/06 00:59:51;;;;;;;2.05;1.07;;;;;;;4.74;69.02;95930.72;1700197;84;21132;-81
2021/05/06 01:05:01;;;;;;;2.87;1.42;;;;;;;4.68;68.95;95937.53;1689331;84;21143;-81
2021/05/06 01:07:44;;;;;;;1.90;1.22;;;;;;;4.65;68.89;95938.84;1688648;84;21151;-81
2021/05/06 01:10:27;;;;;;;1.75;0.95;;;;;;;4.62;68.92;95940.65;1694534;84;21157;-81
2021/05/06 01:12:49;;;;;;;2.90;1.77;;;;;;;4.60;68.96;95950.62;1679207;84;21162;-81
2021/05/06 01:15:17;;;;;;;3.25;1.32;;;;;;;4.60;68.99;95952.45;1693948;84;21530;-81
2021/05/06 01:17:44;;;;;;;1.42;1.00;;;;;;;4.58;69.10;95956.65;1688599;84;21183;-81
2021/05/06 01:20:13;;;;;;;2.37;1.30;;;;;;;4.54;69.21;95959.53;1714149;84;21143;-81
2021/05/06 01:22:41;;;;;;;6.20;1.50;;;;;;;4.50;69.28;95966.83;1693003;84;21313;-81
2021/05/06 01:25:10;;;;;;;2.15;1.52;;;;;;;4.44;69.27;95968.13;1685556;84;21164;-81
2021/05/06 01:27:42;;;;;;;2.20;1.42;;;;;;;4.41;69.31;95971.27;1685721;84;21167;-81
2021/05/06 01:30:20;;;;;;;2.40;1.50;;;;;;;4.39;69.32;95968.64;1694090;84;21155;-81
2021/05/06 01:32:47;;;;;;;1.98;1.25;;;;;;;4.38;69.35;95965.75;1694057;84;21150;-81
2021/05/06 01:35:18;;;;;;;3.22;1.40;;;;;;;4.38;69.32;95974.94;1685369;84;21183;-81
2021/05/06 01:37:51;;;;;;;6.17;1.40;;;;;;;4.40;69.24;95970.22;1685308;84;21135;-81
2021/05/06 01:40:47;;;;;;;2.10;1.10;;;;;;;4.40;69.19;95964.97;1712160;84;21142;-81
2021/05/06 01:43:10;;;;;;;2.05;1.55;;;;;;;4.37;69.16;95973.35;1710997;82;21155;-80
2021/05/06 01:48:49;;;;;;;3.25;1.37;;;;;;;4.37;68.98;95982.02;1695550;84;21123;-80
2021/05/06 01:59:29;;;;;;;2.00;1.10;;;;;;;4.18;69.04;95990.02;1705422;84;21131;-81
2021/05/06 02:01:52;;;;;;;3.15;1.30;;;;;;;4.14;69.06;95992.87;1686328;84;21519;-81
2021/05/06 02:04:19;;;;;;;2.65;0.90;;;;;;;4.16;69.07;95989.48;1685543;84;21149;-81
2021/05/06 02:06:47;;;;;;;1.65;1.00;;;;;;;4.15;69.06;95993.14;1711670;83;21141;-81
2021/05/06 02:09:14;;;;;;;1.45;1.10;;;;;;;4.11;69.13;95994.17;1741868;81;21142;-81
2021/05/06 02:11:41;;;;;;;2.25;1.10;;;;;;;4.04;69.18;95997.52;1762041;81;21163;-81
2021/05/06 02:14:09;;;;;;;2.90;1.10;;;;;;;3.99;69.35;96004.05;1765701;81;21131;-81
2021/05/06 02:16:38;;;;;;;1.70;1.25;;;;;;;4.02;69.08;95999.61;1757029;81;21166;-81
2021/05/06 02:19:09;;;;;;;2.25;1.22;;;;;;;4.10;69.04;96014.11;1765501;81;21514;-81
2021/05/06 02:21:36;;;;;;;1.75;1.12;;;;;;;4.14;68.88;96016.48;1726349;83;21156;-81
2021/05/06 02:24:04;;;;;;;1.37;1.02;;;;;;;4.14;68.76;96016.48;1700703;84;21506;-81
2021/05/06 02:26:30;;;;;;;3.08;1.35;;;;;;;4.15;68.70;96018.86;1700625;84;21134;-81
2021/05/06 02:28:58;;;;;;;2.33;0.93;;;;;;;4.15;68.88;96020.16;1700658;84;21144;-81
2021/05/06 02:31:27;;;;;;;1.95;1.30;;;;;;;4.12;68.71;96018.58;1702595;83;21152;-81
2021/05/06 02:33:53;;;;;;;2.00;1.02;;;;;;;4.10;68.71;96022.77;1686577;83;21519;-81
2021/05/06 02:36:20;;;;;;;3.70;1.15;;;;;;;4.13;68.62;96018.84;1726289;83;21100;-81
2021/05/06 02:38:47;;;;;;;1.90;1.10;;;;;;;4.12;68.58;96031.17;1726348;83;21502;-81
2021/05/06 02:41:14;;;;;;;2.87;1.17;;;;;;;4.12;68.48;96029.86;1709778;83;21157;-81
2021/05/06 02:43:41;;;;;;;2.77;1.40;;;;;;;4.13;68.59;96030.13;1711172;83;21099;-81
2021/05/06 02:46:08;;;;;;;2.45;1.10;;;;;;;4.11;68.62;96030.91;1693899;83;21107;-81
2021/05/06 02:48:35;;;;;;;1.75;1.10;;;;;;;4.07;68.70;96029.80;1726451;83;21523;-81
2021/05/06 02:51:03;;;;;;;3.25;1.30;;;;;;;3.99;68.81;96039.45;1693871;83;21495;-81
2021/05/06 02:53:34;;;;;;;1.60;1.17;;;;;;;3.94;68.88;96042.05;1703972;83;21175;-81
2021/05/06 02:56:05;;;;;;;2.33;1.30;;;;;;;3.90;68.99;96042.25;1684837;83;21515;-81
2021/05/06 02:58:44;;;;;;;1.52;1.30;;;;;;;3.86;69.09;96056.39;1725326;83;21152;-81
2021/05/06 03:03:50;;;;;;;1.95;1.50;;;;;;;3.78;69.46;96059.97;1701508;83;21153;-81
2021/05/06 03:06:21;;;;;;;3.72;1.10;;;;;;;3.70;69.66;96070.92;1719403;83;21170;-81
2021/05/06 03:08:50;;;;;;;3.35;1.25;;;;;;;3.67;69.82;96070.11;1726109;83;21535;-81
2021/05/06 03:11:29;;;;;;;2.22;1.45;;;;;;;3.65;69.85;96070.33;1721887;83;21534;-81
2021/05/06 03:14:25;;;;;;;3.58;1.40;;;;;;;3.63;70.12;96075.55;1700872;83;21107;-81
2021/05/06 03:25:04;;;;;;;2.08;1.00;;;;;;;3.50;70.60;96075.41;1717089;83;21135;-81
2021/05/06 03:27:32;;;;;;;1.87;1.22;;;;;;;3.51;70.85;96083.03;1706689;83;21516;-81
2021/05/06 03:30:07;;;;;;;3.55;1.70;;;;;;;3.52;70.79;96081.23;1714248;83;21143;-81
2021/05/06 03:32:35;;;;;;;3.25;1.10;;;;;;;3.53;70.86;96084.91;1707869;83;21227;-81
2021/05/06 03:35:14;;;;;;;2.72;1.55;;;;;;;3.51;71.31;96089.58;1712021;83;21166;-81
2021/05/06 03:43:42;;;;;;;2.17;1.22;;;;;;;3.55;71.30;96115.59;1686918;83;21179;-80
2021/05/06 03:46:28;;;;;;;3.83;1.62;;;;;;;3.69;71.24;96113.38;1679098;83;21141;-81
2021/05/06 04:17:03;;;;;;;2.08;1.65;;;;;;;4.60;70.06;96137.00;1701488;83;21508;-81
2021/05/06 04:28:13;;;;;;;2.25;1.22;;;;;;;4.98;69.32;96143.83;1712624;83;21156;-81
2021/05/06 04:30:42;;;;;;;2.50;1.40;;;;;;;5.08;69.26;96142.32;1705612;83;21147;-81
2021/05/06 04:36:00;;;;;;;3.85;1.65;;;;;;;5.46;69.04;96146.43;1705693;83;21124;-81
2021/05/06 04:38:23;;;;;;;3.08;1.55;;;;;;;5.66;68.87;96139.42;1720858;83;21128;-81
2021/05/06 04:50:16;;;;;;;4.33;1.77;;;;;;;10.57;64.68;96132.54;1710627;83;21194;-82
2021/05/06 04:54:47;;;;;;;3.12;1.52;;;;;;;15.10;51.50;96141.47;1704097;83;21464;-82
2021/05/06 04:57:26;;;;;;;4.50;1.80;;;;;;;15.84;51.63;96145.61;1709804;83;21151;-82
2021/05/06 05:05:21;;;;;;;1.47;1.12;;;;;;;18.74;48.50;96153.65;1681065;83;21475;-82
2021/05/06 05:07:49;;;;;;;3.05;1.40;;;;;;;18.71;38.29;96134.17;1718627;83;21200;-81
2021/05/06 05:10:33;;;;;;;1.82;1.25;;;;;;;17.53;41.60;96152.06;1700086;83;21547;-81
2021/05/06 05:13:11;;;;;;;2.80;1.02;;;;;;;17.21;36.65;96152.34;1679931;83;21161;-81
2021/05/06 05:18:34;;;;;;;2.45;1.35;;;;;;;15.87;38.83;96157.77;1708644;83;21431;-81
2021/05/06 05:21:16;;;;;;;1.82;1.10;;;;;;;15.51;37.52;96156.90;1696282;84;21535;-81
2021/05/06 05:23:45;;;;;;;1.70;1.17;;;;;;;15.04;38.75;96154.74;1711394;82;21152;-81
2021/05/06 05:26:12;;;;;;;2.92;1.20;;;;;;;15.16;38.22;96161.55;1710266;82;21150;-81
2021/05/06 05:28:41;;;;;;;2.02;1.22;;;;;;;15.65;38.76;96168.19;1710198;82;21176;-81
2021/05/06 05:31:08;;;;;;;1.72;1.15;;;;;;;16.56;38.60;96173.37;1710224;82;21150;-81
2021/05/06 05:33:41;;;;;;;1.60;1.10;;;;;;;17.64;37.62;96179.22;1710118;82;21517;-81
2021/05/06 05:36:14;;;;;;;2.95;1.17;;;;;;;18.76;37.17;96173.66;1731377;82;21129;-81
2021/05/06 05:38:55;;;;;;;1.95;1.22;;;;;;;19.72;35.98;96171.41;1718075;82;21142;-81
2021/05/06 05:55:28;;;;;;;2.17;1.15;;;;;;;21.48;30.81;96169.33;1688831;83;21158;-82
2021/05/06 05:57:56;;;;;;;2.70;1.32;;;;;;;21.49;31.66;96168.97;1726300;82;21097;-82
2021/05/06 06:00:24;;;;;;;1.50;0.88;;;;;;;21.41;31.13;96167.30;1755944;82;21295;-82
2021/05/06 06:02:51;;;;;;;1.00;0.70;;;;;;;21.86;28.99;96167.86;1712449;84;21169;-82
2021/05/06 06:05:18;;;;;;;1.47;1.05;;;;;;;21.71;29.58;96167.42;1693888;83;21125;-82
2021/05/06 06:07:46;;;;;;;0.93;0.82;;;;;;;21.27;29.91;96163.78;1680782;84;21153;-82
2021/05/06 06:10:14;;;;;;;1.30;1.00;;;;;;;20.98;29.52;96155.71;1710149;82;21145;-82
2021/05/06 06:12:41;;;;;;;0.90;0.60;;;;;;;21.18;30.89;96145.67;1747819;81;21140;-81
2021/05/06 06:15:12;;;;;;;2.10;0.85;;;;;;;20.86;27.22;96153.16;1735861;82;21504;-82
2021/05/06 06:17:41;;;;;;;1.27;0.90;;;;;;;20.76;29.62;96160.45;1713088;82;21165;-82
2021/05/06 06:20:10;;;;;;;1.52;1.00;;;;;;;20.98;31.50;96155.71;1760441;81;21155;-82
2021/05/06 06:22:37;;;;;;;1.85;0.95;;;;;;;21.32;28.58;96154.05;1768203;80;21168;-81
2021/05/06 06:25:05;;;;;;;1.22;0.80;;;;;;;20.60;28.02;96178.03;1707445;83;21633;-82
2021/05/06 06:27:33;;;;;;;1.25;0.68;;;;;;;20.50;28.64;96162.42;1695268;84;21122;-82
2021/05/06 06:30:02;;;;;;;2.15;1.12;;;;;;;19.35;28.99;96168.91;1709171;84;21118;-81
2021/05/06 06:32:29;;;;;;;2.40;1.15;;;;;;;16.35;31.69;96181.18;1693505;83;21165;-82
2021/05/06 06:34:56;;;;;;;1.32;0.80;;;;;;;14.07;34.38;96186.23;1691315;84;21142;-81
2021/05/06 06:37:24;;;;;;;1.57;0.98;;;;;;;12.89;36.85;96195.16;1707887;83;21157;-82
2021/05/06 06:39:51;;;;;;;1.60;1.15;;;;;;;13.06;38.15;96206.45;1732222;82;21140;-81
2021/05/06 06:42:18;;;;;;;1.52;1.00;;;;;;;11.92;39.39;96202.34;1732028;82;21188;-81
2021/05/06 06:44:45;;;;;;;1.65;0.90;;;;;;;12.47;39.99;96197.72;1731698;83;21150;-82
2021/05/06 06:47:12;;;;;;;2.05;1.15;;;;;;;13.73;38.43;96188.27;1732314;83;21196;-81
2021/05/06 06:49:42;;;;;;;2.98;1.02;;;;;;;13.18;38.75;96197.41;1719895;82;21122;-81
2021/05/06 06:52:11;;;;;;;1.45;1.10;;;;;;;13.02;39.27;96192.97;1662012;85;21140;-81
2021/05/06 06:54:40;;;;;;;1.50;0.93;;;;;;;12.78;39.57;96183.17;1696090;83;21143;-82
2021/05/06 06:57:09;;;;;;;2.55;0.80;;;;;;;13.57;39.24;96187.34;1695829;83;21179;-81
2021/05/06 06:59:36;;;;;;;1.15;0.93;;;;;;;12.94;39.55;96190.25;1696021;83;21502;-81
2021/05/06 07:02:03;;;;;;;2.70;0.60;;;;;;;11.94;39.94;96187.67;1695934;83;21162;-81
2021/05/06 07:04:31;;;;;;;2.70;1.00;;;;;;;10.89;41.05;96193.27;1695892;83;21163;-81
2021/05/06 07:06:59;;;;;;;1.77;0.93;;;;;;;10.52;42.34;96202.83;1696155;83;21131;-82
2021/05/06 07:09:26;;;;;;;1.55;1.00;;;;;;;14.11;43.12;96191.99;1695787;83;21108;-81
2021/05/06 07:11:53;;;;;;;2.22;0.95;;;;;;;14.63;37.42;96190.73;1695945;83;21131;-81
2021/05/06 07:14:20;;;;;;;1.00;0.75;;;;;;;13.19;37.94;96192.87;1695792;83;21144;-82
2021/05/06 07:16:48;;;;;;;2.85;0.98;;;;;;;13.75;39.23;96191.41;1695894;83;21245;-81
2021/05/06 07:19:15;;;;;;;1.60;0.80;;;;;;;13.87;37.50;96194.27;1695798;83;21507;-81
2021/05/06 07:21:42;;;;;;;2.05;0.95;;;;;;;13.16;38.62;96192.13;1716281;83;21187;-81
2021/05/06 07:24:10;;;;;;;1.02;0.80;;;;;;;12.26;38.71;96184.10;1695994;83;21185;-81
2021/05/06 07:26:37;;;;;;;1.20;0.70;;;;;;;11.50;40.04;96182.92;1695716;83;21151;-81
2021/05/06 07:29:05;;;;;;;1.75;0.90;;;;;;;11.79;40.62;96190.09;1695781;83;21139;-82
2021/05/06 07:31:32;;;;;;;1.42;0.85;;;;;;;13.95;39.62;96185.53;1695911;83;21128;-82
2021/05/06 07:33:59;;;;;;;1.77;0.90;;;;;;;15.97;35.88;96192.16;1695826;83;21127;-82
2021/05/06 07:36:26;;;;;;;1.65;1.30;;;;;;;17.32;33.90;96183.52;1695833;83;21131;-81
2021/05/06 07:38:54;;;;;;;2.58;1.10;;;;;;;18.90;32.45;96154.48;1695760;83;21135;-82
2021/05/06 07:41:21;;;;;;;1.60;1.00;;;;;;;18.90;32.45;96154.48;1695842;83;21538;-81
2021/05/06 07:43:49;;;;;;;2.37;1.00;;;;;;;18.12;31.95;96183.82;1695812;83;21159;-81
2021/05/06 07:46:16;;;;;;;1.42;0.90;;;;;;;17.46;30.58;96173.28;1695733;83;21135;-81
2021/05/06 07:48:44;;;;;;;1.27;0.93;;;;;;;16.24;33.56;96169.52;1695866;83;21143;-82
2021/05/06 07:51:11;;;;;;;1.82;0.82;;;;;;;17.09;31.79;96174.52;1695822;83;21531;-82
2021/05/06 07:53:42;;;;;;;1.82;0.98;;;;;;;16.47;33.08;96178.02;1695778;83;21183;-81
2021/05/06 07:56:09;;;;;;;1.52;0.90;;;;;;;18.29;31.01;96172.06;1695768;83;21562;-82
2021/05/06 07:58:36;;;;;;;2.33;0.75;;;;;;;17.69;31.71;96174.44;1695932;83;21139;-81
2021/05/06 08:01:03;;;;;;;1.50;0.88;;;;;;;17.51;32.16;96160.99;1695847;83;21143;-81
2021/05/06 08:03:30;;;;;;;2.25;1.00;;;;;;;16.97;30.64;96173.13;1695796;83;21502;-81
2021/05/06 08:06:00;;;;;;;2.17;1.20;;;;;;;15.44;32.73;96169.40;1695706;83;21531;-81
2021/05/06 08:08:28;;;;;;;0.97;0.67;;;;;;;14.53;34.39;96168.39;1696010;83;21607;-82
2021/05/06 08:10:57;;;;;;;2.02;0.65;;;;;;;14.93;34.57;96176.22;1695765;83;21167;-81
2021/05/06 08:13:28;;;;;;;1.52;1.07;;;;;;;13.76;34.62;96178.32;1695804;83;21147;-82
2021/05/06 08:15:58;;;;;;;2.25;1.00;;;;;;;14.06;37.07;96177.45;1695707;83;21491;-81
2021/05/06 08:18:25;;;;;;;1.95;0.80;;;;;;;14.18;36.00;96191.52;1695928;83;21100;-81
2021/05/06 08:20:52;;;;;;;0.90;0.62;;;;;;;14.15;35.11;96156.94;1708110;83;21131;-81
2021/05/06 08:23:20;;;;;;;3.27;0.85;;;;;;;12.86;36.26;96174.48;1713624;82;21154;-81
2021/05/06 08:25:48;;;;;;;1.87;0.80;;;;;;;13.77;37.60;96190.55;1701613;84;21166;-81
2021/05/06 08:28:15;;;;;;;1.80;0.70;;;;;;;15.72;36.16;96181.82;1706350;84;21147;-82
2021/05/06 08:30:43;;;;;;;0.80;0.80;;;;;;;17.24;33.98;96173.11;1713775;84;21140;-81
2021/05/06 08:33:11;;;;;;;1.30;0.90;;;;;;;17.30;30.50;96165.07;1713792;82;21145;-81
2021/05/06 08:35:39;;;;;;;1.47;0.90;;;;;;;16.72;31.47;96164.77;1713734;84;21138;-81
2021/05/06 08:38:06;;;;;;;1.95;0.82;;;;;;;16.67;32.67;96172.98;1713763;84;21130;-81
2021/05/06 08:40:34;;;;;;;2.75;1.05;;;;;;;16.97;32.82;96179.05;1713910;84;21285;-81
2021/05/06 08:43:06;;;;;;;1.72;1.00;;;;;;;16.78;31.05;96178.20;1698863;82;21150;-82
2021/05/06 08:45:36;;;;;;;2.52;1.10;;;;;;;16.17;31.29;96175.13;1709855;84;21176;-81
2021/05/06 08:48:04;;;;;;;2.60;0.90;;;;;;;15.62;32.66;96180.86;1699921;84;21539;-81
2021/05/06 08:50:31;;;;;;;2.72;1.05;;;;;;;16.21;34.18;96176.86;1708200;84;21545;-82
2021/05/06 08:53:00;;;;;;;1.22;0.80;;;;;;;18.07;32.30;96170.65;1713791;82;21115;-81
2021/05/06 08:55:27;;;;;;;2.72;1.00;;;;;;;19.25;29.37;96164.81;1693570;84;21568;-82
2021/05/06 08:57:54;;;;;;;0.93;0.70;;;;;;;19.02;31.43;96173.80;1713838;84;21485;-81
2021/05/06 09:00:22;;;;;;;1.45;0.75;;;;;;;19.38;29.26;96166.87;1713760;84;21516;-81
2021/05/06 09:02:50;;;;;;;1.37;0.82;;;;;;;19.51;27.98;96164.89;1713774;82;21516;-82
2021/05/06 09:05:18;;;;;;;2.40;1.00;;;;;;;20.09;28.61;96164.58;1713784;84;21168;-81
2021/05/06 09:07:46;;;;;;;2.25;1.17;;;;;;;19.32;26.76;96162.89;1708188;84;21123;-82
2021/05/06 09:10:38;;;;;;;1.27;0.70;;;;;;;18.36;27.39;96146.23;1699946;84;21129;-81
2021/05/06 09:13:32;;;;;;;2.05;0.82;;;;;;;16.58;29.65;96155.64;1713763;82;21142;-81
2021/05/06 09:16:00;;;;;;;1.35;1.00;;;;;;;14.58;33.11;96177.55;1713707;84;21162;-81
2021/05/06 09:21:30;;;;;;;0.95;0.75;;;;;;;12.01;37.20;96182.76;1854747;76;23067;-81
2021/05/06 09:24:09;;;;;;;1.32;0.70;;;;;;;11.50;37.67;96174.42;1830851;77;21498;-81
2021/05/06 09:26:40;;;;;;;1.72;0.62;;;;;;;11.87;37.55;96172.14;1854570;76;21090;-81
2021/05/06 09:29:11;;;;;;;1.35;0.98;;;;;;;12.19;38.17;96175.19;1887503;76;21079;-81
2021/05/06 09:31:43;;;;;;;1.52;0.90;;;;;;;12.24;37.47;96182.80;1887065;76;21091;-81
2021/05/06 09:34:12;;;;;;;4.85;1.37;;;;;;;12.08;35.78;96173.05;1874433;76;21111;-81
2021/05/06 09:36:43;;;;;;;2.50;0.85;;;;;;;12.31;36.74;96181.32;1876626;76;21103;-81
2021/05/06 09:39:10;;;;;;;1.98;0.80;;;;;;;12.17;35.78;96172.05;1887124;76;21147;-81
2021/05/06 09:41:38;;;;;;;2.45;1.00;;;;;;;12.21;37.32;96186.06;1864925;76;21111;-81
2021/05/06 09:44:16;;;;;;;2.35;0.85;;;;;;;12.28;36.44;96175.83;1885681;76;21146;-81
2021/05/06 09:46:56;;;;;;;2.02;1.22;;;;;;;12.17;37.02;96165.95;1887140;76;21080;-81
2021/05/06 09:49:16;;;;;;;1.82;1.05;;;;;;;12.25;38.97;96167.13;1875775;76;21095;-81
2021/05/06 09:51:58;;;;;;;2.17;0.70;;;;;;;12.29;38.85;96174.73;1852629;77;21110;-81
2021/05/06 09:54:31;;;;;;;2.25;1.00;;;;;;;11.87;37.81;96156.21;1852602;77;21134;-81
2021/05/06 09:57:05;;;;;;;1.40;0.80;;;;;;;11.46;37.16;96175.31;1875365;76;21458;-81
2021/05/06 09:59:38;;;;;;;2.85;1.15;;;;;;;11.49;38.62;96177.38;1875653;76;21111;-81
2021/05/06 10:02:15;;;;;;;2.37;1.10;;;;;;;11.82;37.75;96177.57;1852516;77;21119;-81
2021/05/06 10:04:44;;;;;;;2.70;0.80;;;;;;;11.75;37.73;96162.53;1852640;77;21475;-81
2021/05/06 10:07:22;;;;;;;0.75;0.70;;;;;;;11.46;37.46;96176.64;1875572;76;21099;-80
2021/05/06 10:09:57;;;;;;;1.65;0.75;;;;;;;11.30;38.00;96179.57;1875224;76;21127;-81
2021/05/06 10:12:29;;;;;;;1.12;0.80;;;;;;;11.10;39.24;96188.41;1852519;77;21139;-81
2021/05/06 10:14:58;;;;;;;1.85;1.07;;;;;;;10.96;38.27;96170.59;1852574;77;21115;-81
2021/05/06 10:17:28;;;;;;;1.12;0.40;;;;;;;10.88;38.09;96186.40;1875851;76;21107;-81
2021/05/06 10:19:59;;;;;;;1.62;0.55;;;;;;;10.68;38.27;96173.69;1876200;76;21127;-81
2021/05/06 10:22:30;;;;;;;0.90;0.70;;;;;;;10.51;38.32;96192.52;1868593;76;21111;-81
2021/05/06 10:25:07;;;;;;;1.10;0.80;;;;;;;10.53;38.88;96195.67;1884530;76;21060;-81
2021/05/06 10:27:36;;;;;;;1.57;0.70;;;;;;;10.58;38.61;96191.10;1852759;77;21295;-81
2021/05/06 10:30:08;;;;;;;1.10;0.70;;;;;;;10.47;38.96;96191.53;1879773;76;21479;-81
2021/05/06 10:32:36;;;;;;;0.90;0.70;;;;;;;10.50;39.90;96179.81;1886679;76;21187;-81
2021/05/06 10:35:23;;;;;;;1.87;0.93;;;;;;;10.62;40.40;96189.98;1862321;76;21428;-80
2021/05/06 10:37:59;;;;;;;2.17;1.15;;;;;;;10.59;39.86;96195.33;1843647;77;21100;-80
2021/05/06 10:40:38;;;;;;;1.35;0.82;;;;;;;10.46;40.06;96187.30;1852174;77;21115;-80
2021/05/06 10:43:28;;;;;;;1.45;1.02;;;;;;;10.35;40.47;96208.64;1852177;77;21159;-80
2021/05/06 10:46:01;;;;;;;2.00;1.07;;;;;;;10.33;40.33;96186.95;1756519;81;21140;-81
2021/05/06 10:49:02;;;;;;;1.50;1.02;;;;;;;10.20;40.28;96202.20;1844217;76;21471;-81
2021/05/06 10:51:48;;;;;;;1.57;0.80;;;;;;;10.10;40.57;96203.64;1887196;76;21154;-80
2021/05/06 10:54:40;;;;;;;1.87;0.93;;;;;;;10.00;41.24;96196.64;1862205;76;21115;-81
2021/05/06 10:57:18;;;;;;;1.80;0.82;;;;;;;10.14;41.71;96209.19;1862332;76;21111;-81
2021/05/06 10:59:47;;;;;;;2.33;1.05;;;;;;;10.46;42.41;96203.99;1872835;76;21154;-81
2021/05/06 11:02:46;;;;;;;1.80;1.20;;;;;;;10.77;41.60;96197.70;1852948;76;21135;-81
2021/05/06 11:05:28;;;;;;;2.02;0.90;;;;;;;11.07;42.16;96183.16;1886856;76;21105;-81
2021/05/06 11:08:10;;;;;;;1.85;1.02;;;;;;;11.03;40.55;96189.34;1886741;76;21145;-81
2021/05/06 11:10:51;;;;;;;2.30;0.70;;;;;;;10.96;41.17;96189.70;1886772;76;21098;-81
2021/05/06 11:13:26;;;;;;;1.32;1.00;;;;;;;10.84;40.22;96191.50;1886705;76;21103;-81
2021/05/06 11:16:15;;;;;;;1.25;0.50;;;;;;;10.81;42.00;96178.80;1885326;76;21458;-81
2021/05/06 11:18:49;;;;;;;1.00;0.90;;;;;;;10.87;41.02;96180.84;1851289;77;21107;-80
2021/05/06 11:21:34;;;;;;;2.27;0.95;;;;;;;10.89;41.25;96178.69;1858969;76;21091;-80
2021/05/06 11:24:27;;;;;;;1.70;0.88;;;;;;;11.03;41.33;96183.49;1865087;76;21065;-80
2021/05/06 11:27:08;;;;;;;0.93;0.82;;;;;;;10.99;41.25;96165.27;1862294;76;21060;-80
2021/05/06 11:29:38;;;;;;;0.70;0.70;;;;;;;10.97;41.63;96181.98;1886867;76;21453;-80
2021/05/06 11:32:09;;;;;;;2.67;0.80;;;;;;;11.13;40.97;96191.29;1851462;76;21115;-80
2021/05/06 11:34:40;;;;;;;2.27;1.00;;;;;;;11.15;41.55;96167.91;1844695;77;21072;-80
2021/05/06 11:37:11;;;;;;;2.30;0.88;;;;;;;11.08;40.59;96180.74;1858561;76;21419;-81
2021/05/06 11:40:00;;;;;;;1.52;0.80;;;;;;;10.85;40.73;96173.73;1868548;76;21515;-81
2021/05/06 11:42:35;;;;;;;4.05;0.98;;;;;;;10.77;41.71;96163.77;1886074;76;21068;-81
2021/05/06 11:45:23;;;;;;;2.50;0.82;;;;;;;10.71;41.67;96165.72;1886047;76;21079;-81
2021/05/06 11:47:55;;;;;;;1.57;1.00;;;;;;;10.73;42.93;96154.83;1886685;76;21199;-80
2021/05/06 11:50:34;;;;;;;2.27;0.85;;;;;;;10.77;42.14;96167.75;1886685;76;21103;-80
2021/05/06 11:53:03;;;;;;;0.65;0.60;;;;;;;10.89;41.85;96152.95;1871621;76;21088;-81
2021/05/06 11:55:41;;;;;;;1.22;0.80;;;;;;;10.98;42.34;96153.09;1852142;77;21106;-81
2021/05/06 11:58:10;;;;;;;1.10;0.82;;;;;;;11.04;41.98;96157.22;1852107;77;21133;-81
2021/05/06 12:00:41;;;;;;;1.80;1.05;;;;;;;11.11;42.07;96150.97;1878551;76;21138;-81
2021/05/06 12:03:11;;;;;;;2.00;1.05;;;;;;;11.03;41.87;96145.03;1886699;76;21242;-81
2021/05/06 12:06:00;;;;;;;1.37;0.93;;;;;;;11.19;42.04;96138.38;1861509;76;21099;-81
2021/05/06 12:08:31;;;;;;;2.35;1.02;;;;;;;11.30;42.50;96139.77;1852335;77;21146;-81
2021/05/06 12:11:02;;;;;;;1.72;0.60;;;;;;;11.21;41.42;96126.14;1852187;77;21064;-81
2021/05/06 12:13:33;;;;;;;2.40;1.00;;;;;;;11.29;41.84;96133.43;1867606;76;21080;-81
2021/05/06 12:16:23;;;;;;;2.02;0.88;;;;;;;11.57;42.13;96132.89;1834278;76;21112;-81
2021/05/06 12:19:00;;;;;;;1.57;0.85;;;;;;;11.81;40.51;96122.85;1871438;76;21052;-81
2021/05/06 12:21:39;;;;;;;2.75;0.80;;;;;;;11.92;41.87;96115.47;1886285;76;21245;-81
2021/05/06 12:24:11;;;;;;;1.98;0.80;;;;;;;11.75;39.30;96118.71;1871625;76;21095;-81
2021/05/06 12:26:40;;;;;;;2.70;0.88;;;;;;;11.41;39.39;96113.05;1878434;76;21231;-81
2021/05/06 12:29:21;;;;;;;0.98;0.60;;;;;;;11.33;40.57;96103.11;1886477;76;21107;-81
2021/05/06 12:31:51;;;;;;;1.75;0.98;;;;;;;11.35;40.94;96113.66;1878170;76;21080;-81
2021/05/06 12:34:25;;;;;;;0.90;0.68;;;;;;;11.23;39.37;96100.88;1822924;77;21173;-81
2021/05/06 12:37:00;;;;;;;2.15;1.00;;;;;;;11.14;39.75;96103.98;1878914;76;21586;-81
2021/05/06 12:39:30;;;;;;;2.12;0.80;;;;;;;11.14;40.79;96109.83;1886265;76;21633;-81
2021/05/06 12:42:04;;;;;;;1.45;0.75;;;;;;;11.28;40.56;96113.28;1883814;76;21120;-81
2021/05/06 12:44:40;;;;;;;2.72;0.88;;;;;;;11.33;39.83;96107.08;1851858;77;21095;-81
2021/05/06 12:47:29;;;;;;;0.78;0.70;;;;;;;11.26;40.05;96126.03;1850705;77;21261;-81
2021/05/06 12:50:21;;;;;;;1.65;0.95;;;;;;;11.30;39.95;96105.81;1851797;77;21474;-81
2021/05/06 12:52:52;;;;;;;1.65;0.85;;;;;;;11.50;41.18;96107.27;1863543;76;21092;-80
2021/05/06 12:55:31;;;;;;;2.37;0.85;;;;;;;11.91;40.94;96108.58;1862737;76;21250;-80
2021/05/06 12:58:24;;;;;;;0.40;0.37;;;;;;;12.15;41.56;96095.05;1864572;76;21092;-81
2021/05/06 13:01:00;;;;;;;1.40;1.02;;;;;;;12.62;40.97;96075.59;1856759;76;21304;-81
2021/05/06 13:03:38;;;;;;;1.77;0.90;;;;;;;12.51;38.34;96081.70;1851905;77;21095;-81
2021/05/06 13:06:09;;;;;;;1.10;0.78;;;;;;;12.49;40.11;96099.83;1859125;76;21111;-81
2021/05/06 13:08:41;;;;;;;0.93;0.70;;;;;;;12.40;38.75;96063.90;1885104;76;21230;-81
2021/05/06 13:11:13;;;;;;;1.22;0.70;;;;;;;12.05;39.68;96084.09;1879837;76;21211;-81
2021/05/06 13:13:45;;;;;;;2.80;1.05;;;;;;;11.95;39.49;96067.59;1851666;77;21237;-81
2021/05/06 13:16:16;;;;;;;2.77;0.80;;;;;;;11.77;39.38;96066.09;1851722;77;21095;-81
2021/05/06 13:21:52;;;;;;;2.08;1.20;;;;;;;11.46;39.62;96066.48;1759515;79;22969;-80
2021/05/06 13:24:21;;;;;;;2.45;0.78;;;;;;;11.34;40.47;96072.83;1729521;82;21115;-81
2021/05/06 13:26:49;;;;;;;1.82;0.90;;;;;;;11.44;40.94;96062.02;1729252;81;21115;-81
2021/05/06 13:29:19;;;;;;;2.02;0.90;;;;;;;11.64;40.08;96070.88;1729222;82;21144;-81
2021/05/06 13:31:50;;;;;;;1.47;0.78;;;;;;;11.85;40.88;96065.97;1729286;81;21532;-81
2021/05/06 13:34:24;;;;;;;2.25;0.78;;;;;;;12.02;39.80;96060.00;1742139;81;21127;-80
2021/05/06 13:37:02;;;;;;;2.27;0.45;;;;;;;12.26;39.92;96069.03;1757205;81;21107;-80
2021/05/06 13:39:34;;;;;;;1.37;0.80;;;;;;;12.32;39.11;96051.87;1729439;81;21161;-81
2021/05/06 13:42:02;;;;;;;2.33;1.20;;;;;;;12.19;39.67;96073.42;1729188;82;21141;-80
2021/05/06 13:44:30;;;;;;;2.15;0.82;;;;;;;12.16;40.43;96068.72;1729460;82;21114;-80
2021/05/06 13:47:02;;;;;;;2.62;0.78;;;;;;;12.12;39.99;96074.40;1729184;82;21095;-80
2021/05/06 13:49:32;;;;;;;1.00;0.62;;;;;;;12.13;39.44;96067.45;1729172;81;21126;-80
2021/05/06 13:52:01;;;;;;;2.10;0.78;;;;;;;12.01;40.08;96063.20;1729836;81;21142;-80
2021/05/06 13:54:29;;;;;;;0.55;0.50;;;;;;;11.90;39.22;96071.16;1749599;81;21169;-80
2021/05/06 13:56:56;;;;;;;4.42;0.90;;;;;;;11.77;39.76;96063.43;1729201;82;21119;-80
2021/05/06 13:59:24;;;;;;;1.67;0.90;;;;;;;11.64;40.13;96062.13;1729198;81;21109;-80
2021/05/06 14:01:54;;;;;;;1.80;0.80;;;;;;;11.54;40.95;96060.46;1729222;81;21083;-81
2021/05/06 14:04:22;;;;;;;1.65;0.80;;;;;;;11.62;41.60;96049.16;1729214;81;21126;-80
2021/05/06 14:06:50;;;;;;;1.00;0.62;;;;;;;11.92;41.44;96049.60;1729371;81;21144;-80
2021/05/06 14:09:18;;;;;;;1.32;0.85;;;;;;;12.17;41.39;96051.69;1729244;82;21138;-80
2021/05/06 14:11:48;;;;;;;2.17;1.00;;;;;;;12.43;40.94;96038.58;1729148;82;21471;-80
2021/05/06 14:14:16;;;;;;;2.22;0.68;;;;;;;12.48;40.10;96047.75;1729215;81;21115;-80
2021/05/06 14:16:45;;;;;;;1.90;0.90;;;;;;;12.30;39.34;96010.19;1729287;82;21090;-81